sensor_id;sensor_type;location;lat;lon;timestamp;P1;durP1;ratioP1;P2;durP2;ratioP2
70297;SDS011;57702;44.420;20.298;2022-09-25T00:01:49;0.10;;;0.10;;
70297;SDS011;57702;44.420;20.298;2022-09-25T00:04:15;0.00;;;0.00;;
70297;SDS011;57702;44.420;20.298;2022-09-25T00:06:41;0.00;;;0.00;;
70297;SDS011;57702;44.420;20.298;2022-09-25T00:09:07;0.30;;;0.30;;
70297;SDS011;57702;44.420;20.298;2022-09-25T00:11:33;2.00;;;1.70;;
70297;SDS011;57702;44.420;20.298;2022-09-25T00:14:00;2.10;;;1.95;;
70297;SDS011;57702;44.420;20.298;2022-09-25T00:16:28;3.00;;;1.85;;
70297;SDS011;57702;44.420;20.298;2022-09-25T00:18:58;2.60;;;1.20;;
70297;SDS011;57702;44.420;20.298;2022-09-25T00:21:43;1.13;;;1.13;;
70297;SDS011;57702;44.420;20.298;2022-09-25T00:24:10;0.50;;;0.50;;
70297;SDS011;57702;44.420;20.298;2022-09-25T00:26:38;0.30;;;0.20;;
70297;SDS011;57702;44.420;20.298;2022-09-25T00:29:05;2.53;;;0.65;;
70297;SDS011;57702;44.420;20.298;2022-09-25T00:31:31;0.15;;;0.15;;
70297;SDS011;57702;44.420;20.298;2022-09-25T00:33:59;0.68;;;0.68;;
70297;SDS011;57702;44.420;20.298;2022-09-25T00:36:26;0.20;;;0.20;;
70297;SDS011;57702;44.420;20.298;2022-09-25T00:38:52;0.63;;;0.63;;
70297;SDS011;57702;44.420;20.298;2022-09-25T00:41:20;0.60;;;0.60;;
70297;SDS011;57702;44.420;20.298;2022-09-25T00:43:48;0.20;;;0.20;;
70297;SDS011;57702;44.420;20.298;2022-09-25T00:48:44;0.25;;;0.25;;
70297;SDS011;57702;44.420;20.298;2022-09-25T00:51:13;0.65;;;0.65;;
70297;SDS011;57702;44.420;20.298;2022-09-25T00:53:39;4.22;;;2.25;;
70297;SDS011;57702;44.420;20.298;2022-09-25T00:56:06;1.13;;;1.13;;
70297;SDS011;57702;44.420;20.298;2022-09-25T00:58:34;3.55;;;1.08;;
70297;SDS011;57702;44.420;20.298;2022-09-25T01:01:02;0.45;;;0.30;;
70297;SDS011;57702;44.420;20.298;2022-09-25T01:03:29;0.40;;;0.40;;
70297;SDS011;57702;44.420;20.298;2022-09-25T01:05:55;0.40;;;0.40;;
70297;SDS011;57702;44.420;20.298;2022-09-25T01:08:24;0.40;;;0.40;;
70297;SDS011;57702;44.420;20.298;2022-09-25T01:10:51;0.10;;;0.10;;
70297;SDS011;57702;44.420;20.298;2022-09-25T01:13:21;2.72;;;0.25;;
70297;SDS011;57702;44.420;20.298;2022-09-25T01:15:48;0.10;;;0.10;;
70297;SDS011;57702;44.420;20.298;2022-09-25T01:31:10;0.40;;;0.40;;
70297;SDS011;57702;44.420;20.298;2022-09-25T01:33:44;0.28;;;0.28;;
70297;SDS011;57702;44.420;20.298;2022-09-25T01:36:54;0.20;;;0.20;;
70297;SDS011;57702;44.420;20.298;2022-09-25T01:39:07;0.10;;;0.10;;
70297;SDS011;57702;44.420;20.298;2022-09-25T01:41:37;0.10;;;0.10;;
70297;SDS011;57702;44.420;20.298;2022-09-25T01:44:07;0.10;;;0.10;;
70297;SDS011;57702;44.420;20.298;2022-09-25T01:46:37;0.20;;;0.20;;
70297;SDS011;57702;44.420;20.298;2022-09-25T01:51:53;0.20;;;0.20;;
70297;SDS011;57702;44.420;20.298;2022-09-25T01:54:21;0.10;;;0.10;;
70297;SDS011;57702;44.420;20.298;2022-09-25T02:01:53;0.10;;;0.10;;
70297;SDS011;57702;44.420;20.298;2022-09-25T02:04:33;2.70;;;0.82;;
70297;SDS011;57702;44.420;20.298;2022-09-25T02:07:02;0.20;;;0.20;;
70297;SDS011;57702;44.420;20.298;2022-09-25T02:09:33;5.50;;;0.55;;
70297;SDS011;57702;44.420;20.298;2022-09-25T02:12:08;0.20;;;0.20;;
70297;SDS011;57702;44.420;20.298;2022-09-25T02:14:40;0.30;;;0.30;;
70297;SDS011;57702;44.420;20.298;2022-09-25T02:17:09;0.10;;;0.10;;
70297;SDS011;57702;44.420;20.298;2022-09-25T02:19:37;0.25;;;0.25;;
70297;SDS011;57702;44.420;20.298;2022-09-25T02:22:23;3.22;;;0.88;;
70297;SDS011;57702;44.420;20.298;2022-09-25T02:25:08;1.17;;;0.45;;
70297;SDS011;57702;44.420;20.298;2022-09-25T02:27:37;0.10;;;0.10;;
70297;SDS011;57702;44.420;20.298;2022-09-25T02:30:03;0.10;;;0.10;;
70297;SDS011;57702;44.420;20.298;2022-09-25T02:32:30;0.10;;;0.10;;
70297;SDS011;57702;44.420;20.298;2022-09-25T02:34:57;1.55;;;1.02;;
70297;SDS011;57702;44.420;20.298;2022-09-25T02:37:26;0.20;;;0.20;;
70297;SDS011;57702;44.420;20.298;2022-09-25T02:39:53;0.13;;;0.13;;
70297;SDS011;57702;44.420;20.298;2022-09-25T02:42:25;0.10;;;0.10;;
70297;SDS011;57702;44.420;20.298;2022-09-25T02:47:28;0.10;;;0.10;;
70297;SDS011;57702;44.420;20.298;2022-09-25T02:50:13;0.20;;;0.20;;
70297;SDS011;57702;44.420;20.298;2022-09-25T02:55:55;1.15;;;1.15;;
70297;SDS011;57702;44.420;20.298;2022-09-25T03:00:33;0.65;;;0.65;;
70297;SDS011;57702;44.420;20.298;2022-09-25T03:03:00;1.23;;;1.23;;
70297;SDS011;57702;44.420;20.298;2022-09-25T03:05:28;1.90;;;1.30;;
70297;SDS011;57702;44.420;20.298;2022-09-25T03:07:55;0.30;;;0.30;;
70297;SDS011;57702;44.420;20.298;2022-09-25T03:10:40;0.28;;;0.28;;
70297;SDS011;57702;44.420;20.298;2022-09-25T03:15:39;0.10;;;0.10;;
70297;SDS011;57702;44.420;20.298;2022-09-25T03:18:06;0.10;;;0.10;;
70297;SDS011;57702;44.420;20.298;2022-09-25T03:20:32;0.10;;;0.10;;
70297;SDS011;57702;44.420;20.298;2022-09-25T03:22:58;0.20;;;0.20;;
70297;SDS011;57702;44.420;20.298;2022-09-25T03:25:24;0.20;;;0.20;;
70297;SDS011;57702;44.420;20.298;2022-09-25T03:27:50;0.50;;;0.35;;
70297;SDS011;57702;44.420;20.298;2022-09-25T03:30:17;0.10;;;0.10;;
70297;SDS011;57702;44.420;20.298;2022-09-25T03:32:43;0.20;;;0.20;;
70297;SDS011;57702;44.420;20.298;2022-09-25T03:35:10;0.00;;;0.00;;
70297;SDS011;57702;44.420;20.298;2022-09-25T03:37:36;0.52;;;0.52;;
70297;SDS011;57702;44.420;20.298;2022-09-25T03:40:02;1.13;;;0.35;;
70297;SDS011;57702;44.420;20.298;2022-09-25T03:42:28;2.40;;;0.75;;
70297;SDS011;57702;44.420;20.298;2022-09-25T03:44:55;1.00;;;1.00;;
70297;SDS011;57702;44.420;20.298;2022-09-25T03:47:21;0.28;;;0.28;;
70297;SDS011;57702;44.420;20.298;2022-09-25T03:49:48;0.80;;;0.73;;
70297;SDS011;57702;44.420;20.298;2022-09-25T03:52:14;0.80;;;0.70;;
70297;SDS011;57702;44.420;20.298;2022-09-25T03:54:40;0.10;;;0.10;;
70297;SDS011;57702;44.420;20.298;2022-09-25T03:57:06;0.10;;;0.10;;
70297;SDS011;57702;44.420;20.298;2022-09-25T03:59:32;0.10;;;0.10;;
70297;SDS011;57702;44.420;20.298;2022-09-25T04:01:58;0.20;;;0.20;;
70297;SDS011;57702;44.420;20.298;2022-09-25T04:04:26;0.60;;;0.60;;
70297;SDS011;57702;44.420;20.298;2022-09-25T04:06:54;0.40;;;0.40;;
70297;SDS011;57702;44.420;20.298;2022-09-25T04:09:20;0.57;;;0.57;;
70297;SDS011;57702;44.420;20.298;2022-09-25T04:11:47;0.25;;;0.25;;
70297;SDS011;57702;44.420;20.298;2022-09-25T04:14:14;1.70;;;1.55;;
70297;SDS011;57702;44.420;20.298;2022-09-25T04:16:40;2.75;;;1.05;;
70297;SDS011;57702;44.420;20.298;2022-09-25T04:19:06;0.32;;;0.32;;
70297;SDS011;57702;44.420;20.298;2022-09-25T04:21:32;0.20;;;0.20;;
70297;SDS011;57702;44.420;20.298;2022-09-25T04:23:58;0.57;;;0.57;;
70297;SDS011;57702;44.420;20.298;2022-09-25T04:26:43;0.20;;;0.20;;
70297;SDS011;57702;44.420;20.298;2022-09-25T04:29:10;0.10;;;0.10;;
70297;SDS011;57702;44.420;20.298;2022-09-25T04:31:39;0.10;;;0.10;;
70297;SDS011;57702;44.420;20.298;2022-09-25T04:34:05;0.10;;;0.10;;
70297;SDS011;57702;44.420;20.298;2022-09-25T04:36:31;0.10;;;0.10;;
70297;SDS011;57702;44.420;20.298;2022-09-25T04:38:57;0.15;;;0.15;;
70297;SDS011;57702;44.420;20.298;2022-09-25T04:41:23;0.10;;;0.10;;
70297;SDS011;57702;44.420;20.298;2022-09-25T04:43:49;0.00;;;0.00;;
70297;SDS011;57702;44.420;20.298;2022-09-25T04:46:15;0.10;;;0.10;;
70297;SDS011;57702;44.420;20.298;2022-09-25T04:48:45;0.85;;;0.35;;
70297;SDS011;57702;44.420;20.298;2022-09-25T04:51:11;0.10;;;0.10;;
70297;SDS011;57702;44.420;20.298;2022-09-25T04:53:37;0.00;;;0.00;;
70297;SDS011;57702;44.420;20.298;2022-09-25T04:56:05;0.10;;;0.10;;
70297;SDS011;57702;44.420;20.298;2022-09-25T04:58:32;0.25;;;0.25;;
70297;SDS011;57702;44.420;20.298;2022-09-25T05:01:06;0.45;;;0.45;;
70297;SDS011;57702;44.420;20.298;2022-09-25T05:03:33;0.40;;;0.40;;
70297;SDS011;57702;44.420;20.298;2022-09-25T05:05:59;0.38;;;0.38;;
70297;SDS011;57702;44.420;20.298;2022-09-25T05:08:25;0.20;;;0.20;;
70297;SDS011;57702;44.420;20.298;2022-09-25T05:10:51;0.10;;;0.10;;
70297;SDS011;57702;44.420;20.298;2022-09-25T05:13:18;0.10;;;0.10;;
70297;SDS011;57702;44.420;20.298;2022-09-25T05:15:44;0.00;;;0.00;;
70297;SDS011;57702;44.420;20.298;2022-09-25T05:20:42;0.10;;;0.10;;
70297;SDS011;57702;44.420;20.298;2022-09-25T05:23:09;0.10;;;0.10;;
70297;SDS011;57702;44.420;20.298;2022-09-25T05:25:35;0.20;;;0.20;;
70297;SDS011;57702;44.420;20.298;2022-09-25T05:28:01;0.20;;;0.20;;
70297;SDS011;57702;44.420;20.298;2022-09-25T05:30:29;0.25;;;0.25;;
70297;SDS011;57702;44.420;20.298;2022-09-25T05:32:55;0.28;;;0.28;;
70297;SDS011;57702;44.420;20.298;2022-09-25T05:35:28;1.05;;;0.75;;
70297;SDS011;57702;44.420;20.298;2022-09-25T05:37:55;0.40;;;0.40;;
70297;SDS011;57702;44.420;20.298;2022-09-25T05:40:21;0.85;;;0.85;;
70297;SDS011;57702;44.420;20.298;2022-09-25T05:42:48;0.20;;;0.20;;
70297;SDS011;57702;44.420;20.298;2022-09-25T05:45:15;0.10;;;0.10;;
70297;SDS011;57702;44.420;20.298;2022-09-25T05:47:41;0.20;;;0.20;;
70297;SDS011;57702;44.420;20.298;2022-09-25T05:50:08;2.40;;;2.20;;
70297;SDS011;57702;44.420;20.298;2022-09-25T05:52:35;2.17;;;1.25;;
70297;SDS011;57702;44.420;20.298;2022-09-25T05:55:02;2.13;;;1.88;;
70297;SDS011;57702;44.420;20.298;2022-09-25T05:57:30;4.75;;;1.50;;
70297;SDS011;57702;44.420;20.298;2022-09-25T05:59:57;0.10;;;0.10;;
70297;SDS011;57702;44.420;20.298;2022-09-25T06:02:23;0.30;;;0.30;;
70297;SDS011;57702;44.420;20.298;2022-09-25T06:04:49;0.17;;;0.17;;
70297;SDS011;57702;44.420;20.298;2022-09-25T06:07:15;0.10;;;0.10;;
70297;SDS011;57702;44.420;20.298;2022-09-25T06:09:41;0.10;;;0.10;;
70297;SDS011;57702;44.420;20.298;2022-09-25T06:12:08;0.08;;;0.08;;
70297;SDS011;57702;44.420;20.298;2022-09-25T06:14:34;1.08;;;0.73;;
70297;SDS011;57702;44.420;20.298;2022-09-25T06:17:01;0.03;;;0.03;;
70297;SDS011;57702;44.420;20.298;2022-09-25T06:19:27;0.08;;;0.08;;
70297;SDS011;57702;44.420;20.298;2022-09-25T06:21:54;0.20;;;0.20;;
70297;SDS011;57702;44.420;20.298;2022-09-25T06:24:21;0.30;;;0.30;;
70297;SDS011;57702;44.420;20.298;2022-09-25T06:26:47;1.38;;;1.27;;
70297;SDS011;57702;44.420;20.298;2022-09-25T06:29:14;0.22;;;0.22;;
70297;SDS011;57702;44.420;20.298;2022-09-25T06:31:40;0.50;;;0.50;;
70297;SDS011;57702;44.420;20.298;2022-09-25T06:34:09;1.80;;;1.65;;
70297;SDS011;57702;44.420;20.298;2022-09-25T06:36:36;0.30;;;0.30;;
70297;SDS011;57702;44.420;20.298;2022-09-25T06:39:03;0.20;;;0.20;;
70297;SDS011;57702;44.420;20.298;2022-09-25T06:41:29;0.30;;;0.30;;
70297;SDS011;57702;44.420;20.298;2022-09-25T06:43:55;0.38;;;0.38;;
70297;SDS011;57702;44.420;20.298;2022-09-25T06:46:21;0.80;;;0.77;;
70297;SDS011;57702;44.420;20.298;2022-09-25T06:48:51;0.90;;;0.73;;
70297;SDS011;57702;44.420;20.298;2022-09-25T06:51:18;0.90;;;0.90;;
70297;SDS011;57702;44.420;20.298;2022-09-25T06:53:44;2.10;;;1.20;;
70297;SDS011;57702;44.420;20.298;2022-09-25T06:56:11;0.13;;;0.13;;
70297;SDS011;57702;44.420;20.298;2022-09-25T06:58:37;0.30;;;0.30;;
70297;SDS011;57702;44.420;20.298;2022-09-25T07:01:03;1.40;;;1.20;;
70297;SDS011;57702;44.420;20.298;2022-09-25T07:03:34;1.27;;;0.65;;
70297;SDS011;57702;44.420;20.298;2022-09-25T07:06:14;1.35;;;0.47;;
70297;SDS011;57702;44.420;20.298;2022-09-25T07:08:41;0.60;;;0.60;;
70297;SDS011;57702;44.420;20.298;2022-09-25T07:11:22;2.00;;;0.75;;
70297;SDS011;57702;44.420;20.298;2022-09-25T07:13:48;0.35;;;0.35;;
70297;SDS011;57702;44.420;20.298;2022-09-25T07:16:17;0.85;;;0.85;;
70297;SDS011;57702;44.420;20.298;2022-09-25T07:18:44;0.80;;;0.80;;
70297;SDS011;57702;44.420;20.298;2022-09-25T07:21:12;0.93;;;0.93;;
70297;SDS011;57702;44.420;20.298;2022-09-25T07:23:39;2.72;;;1.58;;
70297;SDS011;57702;44.420;20.298;2022-09-25T07:26:07;1.40;;;1.30;;
70297;SDS011;57702;44.420;20.298;2022-09-25T07:28:34;1.17;;;1.08;;
70297;SDS011;57702;44.420;20.298;2022-09-25T07:31:13;0.73;;;0.73;;
70297;SDS011;57702;44.420;20.298;2022-09-25T07:33:39;3.28;;;1.75;;
70297;SDS011;57702;44.420;20.298;2022-09-25T07:36:05;1.15;;;1.05;;
70297;SDS011;57702;44.420;20.298;2022-09-25T07:38:33;1.20;;;0.95;;
70297;SDS011;57702;44.420;20.298;2022-09-25T07:41:01;0.43;;;0.43;;
70297;SDS011;57702;44.420;20.298;2022-09-25T07:43:27;2.55;;;0.68;;
70297;SDS011;57702;44.420;20.298;2022-09-25T07:45:53;3.38;;;1.73;;
70297;SDS011;57702;44.420;20.298;2022-09-25T07:48:19;1.50;;;1.27;;
70297;SDS011;57702;44.420;20.298;2022-09-25T07:50:46;11.65;;;2.42;;
70297;SDS011;57702;44.420;20.298;2022-09-25T07:53:15;1.95;;;1.63;;
70297;SDS011;57702;44.420;20.298;2022-09-25T07:55:45;4.82;;;1.75;;
70297;SDS011;57702;44.420;20.298;2022-09-25T07:58:11;5.45;;;3.58;;
70297;SDS011;57702;44.420;20.298;2022-09-25T08:00:37;3.17;;;1.92;;
70297;SDS011;57702;44.420;20.298;2022-09-25T08:03:05;2.47;;;1.98;;
70297;SDS011;57702;44.420;20.298;2022-09-25T08:05:31;0.60;;;0.60;;
70297;SDS011;57702;44.420;20.298;2022-09-25T08:07:57;4.07;;;1.73;;
70297;SDS011;57702;44.420;20.298;2022-09-25T08:10:23;2.35;;;1.33;;
70297;SDS011;57702;44.420;20.298;2022-09-25T08:12:49;1.58;;;1.48;;
70297;SDS011;57702;44.420;20.298;2022-09-25T08:15:16;0.98;;;0.98;;
70297;SDS011;57702;44.420;20.298;2022-09-25T08:17:42;0.30;;;0.20;;
70297;SDS011;57702;44.420;20.298;2022-09-25T08:20:08;0.25;;;0.25;;
70297;SDS011;57702;44.420;20.298;2022-09-25T08:22:35;0.55;;;0.55;;
70297;SDS011;57702;44.420;20.298;2022-09-25T08:25:01;0.35;;;0.25;;
70297;SDS011;57702;44.420;20.298;2022-09-25T08:27:27;1.10;;;1.10;;
70297;SDS011;57702;44.420;20.298;2022-09-25T08:29:54;1.83;;;1.15;;
70297;SDS011;57702;44.420;20.298;2022-09-25T08:32:20;0.77;;;0.77;;
70297;SDS011;57702;44.420;20.298;2022-09-25T08:34:46;0.20;;;0.20;;
70297;SDS011;57702;44.420;20.298;2022-09-25T08:37:13;1.17;;;1.08;;
70297;SDS011;57702;44.420;20.298;2022-09-25T08:39:39;2.05;;;1.92;;
70297;SDS011;57702;44.420;20.298;2022-09-25T08:42:05;4.28;;;1.85;;
70297;SDS011;57702;44.420;20.298;2022-09-25T08:44:43;5.50;;;1.23;;
70297;SDS011;57702;44.420;20.298;2022-09-25T08:50:09;1.55;;;1.23;;
70297;SDS011;57702;44.420;20.298;2022-09-25T08:52:36;0.45;;;0.43;;
70297;SDS011;57702;44.420;20.298;2022-09-25T08:55:16;18.35;;;2.50;;
70297;SDS011;57702;44.420;20.298;2022-09-25T08:57:43;1.45;;;1.17;;
70297;SDS011;57702;44.420;20.298;2022-09-25T09:02:41;0.63;;;0.60;;
70297;SDS011;57702;44.420;20.298;2022-09-25T09:07:37;0.28;;;0.28;;
70297;SDS011;57702;44.420;20.298;2022-09-25T09:12:47;1.58;;;0.88;;
70297;SDS011;57702;44.420;20.298;2022-09-25T09:15:29;0.68;;;0.35;;
70297;SDS011;57702;44.420;20.298;2022-09-25T09:17:55;0.55;;;0.55;;
70297;SDS011;57702;44.420;20.298;2022-09-25T09:20:23;0.10;;;0.10;;
70297;SDS011;57702;44.420;20.298;2022-09-25T09:22:52;0.52;;;0.52;;
70297;SDS011;57702;44.420;20.298;2022-09-25T09:30:20;0.20;;;0.20;;
70297;SDS011;57702;44.420;20.298;2022-09-25T09:35:16;0.10;;;0.10;;
70297;SDS011;57702;44.420;20.298;2022-09-25T09:40:24;0.52;;;0.52;;
70297;SDS011;57702;44.420;20.298;2022-09-25T09:43:02;0.10;;;0.10;;
70297;SDS011;57702;44.420;20.298;2022-09-25T09:48:24;9.95;;;1.08;;
70297;SDS011;57702;44.420;20.298;2022-09-25T09:50:55;0.20;;;0.20;;
70297;SDS011;57702;44.420;20.298;2022-09-25T10:01:28;0.10;;;0.10;;
70297;SDS011;57702;44.420;20.298;2022-09-25T10:04:10;0.00;;;0.00;;
70297;SDS011;57702;44.420;20.298;2022-09-25T10:06:37;0.65;;;0.63;;
70297;SDS011;57702;44.420;20.298;2022-09-25T10:09:03;0.25;;;0.25;;
70297;SDS011;57702;44.420;20.298;2022-09-25T10:11:32;0.50;;;0.50;;
70297;SDS011;57702;44.420;20.298;2022-09-25T10:14:00;1.45;;;0.32;;
70297;SDS011;57702;44.420;20.298;2022-09-25T10:16:28;0.10;;;0.10;;
70297;SDS011;57702;44.420;20.298;2022-09-25T10:19:05;0.40;;;0.40;;
70297;SDS011;57702;44.420;20.298;2022-09-25T10:21:35;0.00;;;0.00;;
70297;SDS011;57702;44.420;20.298;2022-09-25T10:24:02;2.07;;;0.30;;
70297;SDS011;57702;44.420;20.298;2022-09-25T10:26:36;0.22;;;0.22;;
70297;SDS011;57702;44.420;20.298;2022-09-25T10:31:35;0.25;;;0.20;;
70297;SDS011;57702;44.420;20.298;2022-09-25T10:36:41;0.30;;;0.30;;
70297;SDS011;57702;44.420;20.298;2022-09-25T10:39:30;0.30;;;0.13;;
70297;SDS011;57702;44.420;20.298;2022-09-25T10:41:54;0.35;;;0.35;;
70297;SDS011;57702;44.420;20.298;2022-09-25T10:44:33;0.47;;;0.10;;
70297;SDS011;57702;44.420;20.298;2022-09-25T10:50:10;0.05;;;0.05;;
70297;SDS011;57702;44.420;20.298;2022-09-25T10:52:44;0.00;;;0.00;;
70297;SDS011;57702;44.420;20.298;2022-09-25T10:55:35;0.00;;;0.00;;
70297;SDS011;57702;44.420;20.298;2022-09-25T11:03:13;0.90;;;0.20;;
70297;SDS011;57702;44.420;20.298;2022-09-25T11:05:48;0.57;;;0.22;;
70297;SDS011;57702;44.420;20.298;2022-09-25T11:08:15;0.20;;;0.10;;
70297;SDS011;57702;44.420;20.298;2022-09-25T11:10:51;0.20;;;0.20;;
70297;SDS011;57702;44.420;20.298;2022-09-25T11:13:29;0.05;;;0.05;;
70297;SDS011;57702;44.420;20.298;2022-09-25T11:16:00;0.10;;;0.10;;
70297;SDS011;57702;44.420;20.298;2022-09-25T11:18:49;0.10;;;0.10;;
70297;SDS011;57702;44.420;20.298;2022-09-25T11:26:36;0.75;;;0.32;;
70297;SDS011;57702;44.420;20.298;2022-09-25T11:29:09;0.25;;;0.25;;
70297;SDS011;57702;44.420;20.298;2022-09-25T11:31:41;0.10;;;0.10;;
70297;SDS011;57702;44.420;20.298;2022-09-25T11:39:32;0.75;;;0.63;;
70297;SDS011;57702;44.420;20.298;2022-09-25T11:45:14;0.13;;;0.13;;
70297;SDS011;57702;44.420;20.298;2022-09-25T11:47:39;0.43;;;0.17;;
70297;SDS011;57702;44.420;20.298;2022-09-25T11:50:10;0.03;;;0.03;;
70297;SDS011;57702;44.420;20.298;2022-09-25T11:55:13;0.10;;;0.10;;
70297;SDS011;57702;44.420;20.298;2022-09-25T11:57:47;0.00;;;0.00;;
70297;SDS011;57702;44.420;20.298;2022-09-25T12:19:32;0.17;;;0.17;;
70297;SDS011;57702;44.420;20.298;2022-09-25T12:24:43;0.05;;;0.05;;
70297;SDS011;57702;44.420;20.298;2022-09-25T12:29:46;1.45;;;0.30;;
70297;SDS011;57702;44.420;20.298;2022-09-25T12:32:27;0.00;;;0.00;;
70297;SDS011;57702;44.420;20.298;2022-09-25T12:35:08;1.55;;;0.25;;
70297;SDS011;57702;44.420;20.298;2022-09-25T12:37:47;0.10;;;0.10;;
70297;SDS011;57702;44.420;20.298;2022-09-25T12:40:39;0.05;;;0.05;;
70297;SDS011;57702;44.420;20.298;2022-09-25T12:43:09;0.15;;;0.15;;
70297;SDS011;57702;44.420;20.298;2022-09-25T12:45:48;0.70;;;0.22;;
70297;SDS011;57702;44.420;20.298;2022-09-25T12:48:29;0.20;;;0.10;;
70297;SDS011;57702;44.420;20.298;2022-09-25T12:56:14;0.32;;;0.32;;
70297;SDS011;57702;44.420;20.298;2022-09-25T12:59:01;0.43;;;0.43;;
70297;SDS011;57702;44.420;20.298;2022-09-25T13:01:35;3.33;;;0.35;;
70297;SDS011;57702;44.420;20.298;2022-09-25T13:04:12;3.53;;;1.55;;
70297;SDS011;57702;44.420;20.298;2022-09-25T13:09:21;0.10;;;0.10;;
70297;SDS011;57702;44.420;20.298;2022-09-25T13:14:31;0.00;;;0.00;;
70297;SDS011;57702;44.420;20.298;2022-09-25T13:16:58;0.45;;;0.45;;
70297;SDS011;57702;44.420;20.298;2022-09-25T13:19:29;3.00;;;0.47;;
70297;SDS011;57702;44.420;20.298;2022-09-25T13:22:03;0.43;;;0.43;;
70297;SDS011;57702;44.420;20.298;2022-09-25T13:24:35;0.17;;;0.10;;
70297;SDS011;57702;44.420;20.298;2022-09-25T13:27:03;0.20;;;0.20;;
70297;SDS011;57702;44.420;20.298;2022-09-25T13:29:34;0.00;;;0.00;;
70297;SDS011;57702;44.420;20.298;2022-09-25T13:32:16;0.10;;;0.10;;
70297;SDS011;57702;44.420;20.298;2022-09-25T13:34:43;0.00;;;0.00;;
70297;SDS011;57702;44.420;20.298;2022-09-25T13:37:10;0.25;;;0.25;;
70297;SDS011;57702;44.420;20.298;2022-09-25T13:39:43;0.28;;;0.28;;
70297;SDS011;57702;44.420;20.298;2022-09-25T13:44:56;0.10;;;0.10;;
70297;SDS011;57702;44.420;20.298;2022-09-25T14:00:26;0.15;;;0.15;;
70297;SDS011;57702;44.420;20.298;2022-09-25T14:02:56;7.57;;;0.45;;
70297;SDS011;57702;44.420;20.298;2022-09-25T14:05:36;1.13;;;0.73;;
70297;SDS011;57702;44.420;20.298;2022-09-25T14:08:05;0.63;;;0.63;;
70297;SDS011;57702;44.420;20.298;2022-09-25T14:10:32;0.73;;;0.50;;
70297;SDS011;57702;44.420;20.298;2022-09-25T14:12:59;1.50;;;1.02;;
70297;SDS011;57702;44.420;20.298;2022-09-25T14:15:33;0.38;;;0.10;;
70297;SDS011;57702;44.420;20.298;2022-09-25T14:18:06;0.22;;;0.22;;
70297;SDS011;57702;44.420;20.298;2022-09-25T14:20:34;0.45;;;0.43;;
70297;SDS011;57702;44.420;20.298;2022-09-25T14:23:02;0.10;;;0.10;;
70297;SDS011;57702;44.420;20.298;2022-09-25T14:25:31;0.35;;;0.35;;
70297;SDS011;57702;44.420;20.298;2022-09-25T14:28:01;0.68;;;0.65;;
70297;SDS011;57702;44.420;20.298;2022-09-25T14:30:28;0.00;;;0.00;;
70297;SDS011;57702;44.420;20.298;2022-09-25T14:40:29;0.20;;;0.20;;
70297;SDS011;57702;44.420;20.298;2022-09-25T14:48:11;0.00;;;0.00;;
70297;SDS011;57702;44.420;20.298;2022-09-25T14:50:41;0.20;;;0.20;;
70297;SDS011;57702;44.420;20.298;2022-09-25T14:53:12;0.10;;;0.10;;
70297;SDS011;57702;44.420;20.298;2022-09-25T14:55:45;0.13;;;0.13;;
70297;SDS011;57702;44.420;20.298;2022-09-25T14:58:15;0.35;;;0.35;;
70297;SDS011;57702;44.420;20.298;2022-09-25T15:00:51;0.40;;;0.40;;
70297;SDS011;57702;44.420;20.298;2022-09-25T15:03:19;0.00;;;0.00;;
70297;SDS011;57702;44.420;20.298;2022-09-25T15:05:48;0.20;;;0.20;;
70297;SDS011;57702;44.420;20.298;2022-09-25T15:08:19;0.00;;;0.00;;
70297;SDS011;57702;44.420;20.298;2022-09-25T15:10:46;0.00;;;0.00;;
70297;SDS011;57702;44.420;20.298;2022-09-25T15:15:43;0.00;;;0.00;;
70297;SDS011;57702;44.420;20.298;2022-09-25T15:18:30;0.00;;;0.00;;
70297;SDS011;57702;44.420;20.298;2022-09-25T15:20:57;0.00;;;0.00;;
70297;SDS011;57702;44.420;20.298;2022-09-25T15:23:23;0.00;;;0.00;;
70297;SDS011;57702;44.420;20.298;2022-09-25T15:25:53;0.00;;;0.00;;
70297;SDS011;57702;44.420;20.298;2022-09-25T15:28:20;3.28;;;0.75;;
70297;SDS011;57702;44.420;20.298;2022-09-25T15:30:58;0.20;;;0.20;;
70297;SDS011;57702;44.420;20.298;2022-09-25T15:33:26;0.10;;;0.10;;
70297;SDS011;57702;44.420;20.298;2022-09-25T15:38:37;0.08;;;0.08;;
70297;SDS011;57702;44.420;20.298;2022-09-25T15:41:08;0.80;;;0.73;;
70297;SDS011;57702;44.420;20.298;2022-09-25T15:43:36;0.33;;;0.33;;
70297;SDS011;57702;44.420;20.298;2022-09-25T15:48:39;0.00;;;0.00;;
70297;SDS011;57702;44.420;20.298;2022-09-25T15:51:13;0.00;;;0.00;;
70297;SDS011;57702;44.420;20.298;2022-09-25T15:53:40;0.00;;;0.00;;
70297;SDS011;57702;44.420;20.298;2022-09-25T15:56:25;0.10;;;0.10;;
70297;SDS011;57702;44.420;20.298;2022-09-25T15:59:15;0.00;;;0.00;;
70297;SDS011;57702;44.420;20.298;2022-09-25T16:01:38;0.00;;;0.00;;
70297;SDS011;57702;44.420;20.298;2022-09-25T16:04:25;0.00;;;0.00;;
70297;SDS011;57702;44.420;20.298;2022-09-25T16:09:48;0.00;;;0.00;;
70297;SDS011;57702;44.420;20.298;2022-09-25T16:14:45;0.00;;;0.00;;
70297;SDS011;57702;44.420;20.298;2022-09-25T16:17:31;0.00;;;0.00;;
70297;SDS011;57702;44.420;20.298;2022-09-25T16:22:51;0.40;;;0.40;;
70297;SDS011;57702;44.420;20.298;2022-09-25T16:25:20;0.38;;;0.30;;
70297;SDS011;57702;44.420;20.298;2022-09-25T16:27:49;0.45;;;0.40;;
70297;SDS011;57702;44.420;20.298;2022-09-25T16:30:17;0.00;;;0.00;;
70297;SDS011;57702;44.420;20.298;2022-09-25T16:32:53;6.63;;;1.15;;
70297;SDS011;57702;44.420;20.298;2022-09-25T16:35:28;0.17;;;0.17;;
70297;SDS011;57702;44.420;20.298;2022-09-25T16:37:57;0.03;;;0.03;;
70297;SDS011;57702;44.420;20.298;2022-09-25T16:40:24;0.05;;;0.05;;
70297;SDS011;57702;44.420;20.298;2022-09-25T16:42:53;0.28;;;0.28;;
70297;SDS011;57702;44.420;20.298;2022-09-25T16:45:20;0.00;;;0.00;;
70297;SDS011;57702;44.420;20.298;2022-09-25T16:47:52;2.40;;;0.55;;
70297;SDS011;57702;44.420;20.298;2022-09-25T16:50:19;0.05;;;0.05;;
70297;SDS011;57702;44.420;20.298;2022-09-25T16:52:46;0.13;;;0.13;;
70297;SDS011;57702;44.420;20.298;2022-09-25T16:55:20;0.20;;;0.20;;
70297;SDS011;57702;44.420;20.298;2022-09-25T16:57:47;0.03;;;0.03;;
70297;SDS011;57702;44.420;20.298;2022-09-25T17:00:14;0.10;;;0.10;;
70297;SDS011;57702;44.420;20.298;2022-09-25T17:02:41;4.03;;;0.77;;
70297;SDS011;57702;44.420;20.298;2022-09-25T17:05:24;0.40;;;0.40;;
70297;SDS011;57702;44.420;20.298;2022-09-25T17:07:52;0.15;;;0.15;;
70297;SDS011;57702;44.420;20.298;2022-09-25T17:10:20;0.47;;;0.47;;
70297;SDS011;57702;44.420;20.298;2022-09-25T17:12:46;0.30;;;0.30;;
70297;SDS011;57702;44.420;20.298;2022-09-25T17:15:14;9.05;;;4.80;;
70297;SDS011;57702;44.420;20.298;2022-09-25T17:17:40;2.40;;;2.30;;
70297;SDS011;57702;44.420;20.298;2022-09-25T17:20:08;2.83;;;2.55;;
70297;SDS011;57702;44.420;20.298;2022-09-25T17:22:34;13.68;;;7.07;;
70297;SDS011;57702;44.420;20.298;2022-09-25T17:25:00;4.93;;;3.55;;
70297;SDS011;57702;44.420;20.298;2022-09-25T17:27:27;9.98;;;1.88;;
70297;SDS011;57702;44.420;20.298;2022-09-25T17:29:53;7.95;;;5.03;;
70297;SDS011;57702;44.420;20.298;2022-09-25T17:32:19;15.63;;;7.38;;
70297;SDS011;57702;44.420;20.298;2022-09-25T17:34:46;5.38;;;4.38;;
70297;SDS011;57702;44.420;20.298;2022-09-25T17:37:12;6.22;;;3.60;;
70297;SDS011;57702;44.420;20.298;2022-09-25T17:39:38;7.43;;;4.82;;
70297;SDS011;57702;44.420;20.298;2022-09-25T17:42:05;3.83;;;3.35;;
70297;SDS011;57702;44.420;20.298;2022-09-25T17:44:31;4.80;;;2.15;;